Ben Arnold, Texas
Current Conditions -  °F | °C
As of 7:35 PM on Wednesday 26 Nov 2014 (Local Time) from KT35 Reporting Station
Clear Clear  
Wind Chill: 55°   Ceiling: Unl
Heat Index: 55°   Visibility: 10mi
Dew Point: 36°   Wind: 5mph
Humidity: 48%   Direction: 360°N
Pressure: 30.27"   Gusts: NA
Location:  30.9882°N, 97.103°W
Report Text: KT35 270135Z AUTO 36004KT 10SM CLR 13/02 A3027 RMK AO2 T01300022
Loading
Personal Weather Stations






























Interactive Weather Map New forecast layout! Learn more

10-Day Weather Forecast

Advertisements
Track Severe Weather on mobile